createdAt,value
2018-09-03T00:04:06.898Z,64.31
2018-09-03T00:09:07.119Z,64.45
2018-09-03T00:14:04.642Z,64.18
2018-09-03T00:19:02.269Z,65.43
2018-09-03T00:23:59.670Z,65.30
2018-09-03T00:28:57.039Z,64.65
2018-09-03T00:34:00.165Z,63.98
2018-09-03T00:40:06.105Z,64.17
2018-09-03T00:45:09.062Z,64.37
2018-09-03T00:50:07.354Z,64.12
2018-09-03T00:55:04.867Z,64.44
2018-09-03T01:00:02.320Z,65.27
2018-09-03T01:05:00.306Z,65.16
2018-09-03T01:09:57.707Z,65.94
2018-09-03T01:14:55.483Z,66.50
2018-09-03T01:19:52.852Z,67.31
2018-09-03T01:24:50.255Z,68.12
2018-09-03T01:29:47.690Z,67.22
2018-09-03T01:34:45.065Z,67.90
2018-09-03T01:39:42.439Z,68.49
2018-09-03T01:44:40.387Z,68.42
2018-09-03T01:49:37.759Z,68.94
2018-09-03T01:54:35.153Z,68.70
2018-09-03T01:59:32.512Z,69.00
2018-09-03T02:04:30.547Z,69.24
2018-09-03T02:09:27.972Z,69.29
2018-09-03T02:14:25.386Z,69.50
2018-09-03T02:19:22.783Z,69.68
2018-09-03T02:24:20.225Z,69.40
2018-09-03T02:29:17.607Z,69.16
2018-09-03T02:34:14.981Z,69.84
2018-09-03T02:39:21.063Z,70.72
2018-09-03T02:44:18.450Z,70.84
2018-09-03T02:49:16.407Z,70.90
2018-09-03T02:54:14.463Z,70.76
2018-09-03T02:59:11.835Z,71.11
2018-09-03T03:04:09.242Z,71.85
2018-09-03T03:09:08.223Z,71.71
2018-09-03T03:14:05.667Z,72.30
2018-09-03T03:19:03.279Z,71.35
2018-09-03T03:24:00.739Z,71.39
2018-09-03T03:28:58.132Z,72.27
2018-09-03T03:33:55.519Z,72.91
2018-09-03T03:38:52.916Z,72.45
2018-09-03T03:43:50.554Z,72.56
2018-09-03T03:48:48.021Z,72.98
2018-09-03T03:53:45.390Z,74.02
2018-09-03T03:58:42.843Z,73.51
2018-09-03T04:03:40.414Z,73.24
2018-09-03T04:08:38.139Z,73.14
2018-09-03T04:13:35.526Z,73.69
2018-09-03T04:18:33.568Z,74.23
2018-09-03T04:23:30.995Z,73.92
2018-09-03T04:28:28.396Z,74.29
2018-09-03T04:33:25.895Z,75.69
2018-09-03T04:38:23.337Z,75.23
2018-09-03T04:43:20.787Z,76.38
2018-09-03T04:48:18.204Z,76.39
2018-09-03T04:53:15.603Z,76.88
2018-09-03T04:58:13.022Z,77.13
2018-09-03T05:03:10.439Z,77.83
2018-09-03T05:08:07.839Z,78.49
2018-09-03T05:13:05.266Z,78.84
2018-09-03T05:18:03.374Z,79.22
2018-09-03T05:23:00.827Z,79.05
2018-09-03T05:27:58.227Z,79.52
2018-09-03T05:32:55.737Z,78.69
2018-09-03T05:37:53.190Z,79.56
2018-09-03T05:42:50.601Z,79.08
2018-09-03T05:47:48.063Z,80.23
2018-09-03T05:52:46.445Z,80.03
2018-09-03T05:57:43.843Z,80.32
2018-09-03T06:02:41.241Z,79.01
2018-09-03T06:07:39.928Z,78.69
2018-09-03T06:12:37.615Z,79.25
2018-09-03T06:17:35.010Z,80.41
2018-09-03T06:22:33.461Z,80.24
2018-09-03T06:27:30.888Z,79.69
2018-09-03T06:32:28.306Z,80.33
2018-09-03T06:37:25.719Z,81.01
2018-09-03T06:42:23.254Z,81.50
2018-09-03T06:47:20.718Z,81.02
2018-09-03T06:52:24.459Z,80.29
2018-09-03T06:57:21.886Z,80.18
2018-09-03T07:02:19.284Z,79.24
2018-09-03T07:07:16.688Z,78.15
2018-09-03T07:12:14.652Z,77.46
2018-09-03T07:17:12.066Z,78.61
2018-09-03T07:22:12.969Z,78.25
2018-09-03T07:27:10.463Z,78.29
2018-09-03T07:32:08.412Z,77.29
2018-09-03T07:37:05.807Z,76.93
2018-09-03T07:42:03.227Z,76.12
2018-09-03T07:47:00.680Z,74.37
2018-09-03T07:52:04.383Z,72.04
2018-09-03T07:57:02.063Z,71.59
2018-09-03T08:01:59.887Z,70.39
2018-09-03T08:06:57.327Z,68.15
2018-09-03T08:11:54.738Z,68.41
2018-09-03T08:16:52.135Z,67.67
2018-09-03T08:21:53.334Z,65.18
2018-09-03T08:26:50.944Z,66.38
2018-09-03T08:31:48.387Z,67.78
2018-09-03T08:36:45.781Z,66.26
2018-09-03T08:41:43.568Z,65.84
2018-09-03T08:46:40.966Z,66.26
2018-09-03T08:51:40.642Z,65.44
2018-09-03T08:56:38.116Z,63.54
2018-09-03T09:01:35.462Z,61.73
2018-09-03T09:06:32.903Z,63.60
2018-09-03T09:11:30.298Z,67.19
2018-09-03T09:16:27.687Z,65.81
2018-09-03T09:21:25.081Z,66.36
2018-09-03T09:26:22.527Z,66.37
2018-09-03T09:31:19.927Z,67.12
2018-09-03T09:36:17.359Z,63.95
2018-09-03T09:41:15.253Z,68.23
2018-09-03T09:46:12.678Z,65.80
2018-09-03T09:51:10.069Z,62.85
2018-09-03T09:56:07.499Z,62.93
2018-09-03T10:01:10.571Z,61.24
2018-09-03T10:06:07.959Z,63.43
2018-09-03T10:11:05.595Z,62.41
2018-09-03T10:16:02.983Z,62.15
2018-09-03T10:21:00.404Z,60.57
2018-09-03T10:25:57.864Z,58.76
2018-09-03T10:30:55.271Z,57.95
2018-09-03T10:35:52.672Z,56.71
2018-09-03T10:40:50.071Z,58.98
2018-09-03T10:45:47.469Z,56.36
2018-09-03T10:50:45.341Z,54.29
2018-09-03T10:55:42.771Z,58.14
2018-09-03T11:00:40.467Z,56.88
2018-09-03T11:05:37.870Z,62.58
2018-09-03T11:10:35.263Z,61.47
2018-09-03T11:15:32.908Z,61.81
2018-09-03T11:20:30.845Z,62.79
2018-09-03T11:25:30.151Z,63.67
2018-09-03T11:30:27.802Z,61.69
2018-09-03T11:35:25.409Z,62.40
2018-09-03T11:40:24.351Z,62.62
2018-09-03T11:45:22.640Z,62.92
2018-09-03T11:50:20.531Z,63.83
2018-09-03T11:55:17.926Z,62.48
2018-09-03T12:00:21.391Z,61.35
2018-09-03T12:05:18.802Z,61.58
2018-09-03T12:10:16.221Z,62.11
2018-09-03T12:15:18.587Z,59.85
2018-09-03T12:20:15.975Z,60.52
2018-09-03T12:25:13.387Z,62.38
2018-09-03T12:30:10.774Z,62.32
2018-09-03T12:35:08.174Z,62.19
2018-09-03T12:40:05.643Z,65.11
2018-09-03T12:45:03.069Z,65.61
2018-09-03T12:50:00.469Z,66.08
2018-09-03T12:54:57.872Z,65.15
2018-09-03T13:00:05.135Z,67.64
2018-09-03T13:04:52.685Z,66.82
2018-09-03T13:09:50.070Z,66.12
2018-09-03T13:14:47.598Z,65.87
2018-09-03T13:19:45.063Z,65.73
2018-09-03T13:24:42.552Z,65.46
2018-09-03T13:29:39.908Z,63.36
2018-09-03T13:34:37.291Z,61.36
2018-09-03T13:39:35.051Z,61.79
2018-09-03T13:44:32.443Z,62.29
2018-09-03T13:49:29.838Z,60.50
2018-09-03T13:54:27.215Z,60.49
2018-09-03T13:59:24.608Z,60.37
2018-09-03T14:04:22.002Z,59.01
2018-09-03T14:09:19.403Z,58.74
2018-09-03T14:14:17.082Z,62.52
2018-09-03T14:19:14.463Z,64.08
2018-09-03T14:24:11.875Z,64.80
2018-09-03T14:29:09.287Z,65.49
2018-09-03T14:34:06.692Z,65.55
2018-09-03T14:39:06.883Z,66.85
2018-09-03T14:44:04.301Z,64.46
2018-09-03T14:49:02.255Z,66.81
2018-09-03T14:53:59.666Z,67.42
2018-09-03T14:58:57.075Z,67.07
2018-09-03T15:03:54.475Z,67.00
2018-09-03T15:08:51.867Z,68.35
2018-09-03T15:13:52.942Z,67.48
2018-09-03T15:18:50.414Z,66.74
2018-09-03T15:23:50.069Z,66.86
2018-09-03T15:28:55.965Z,67.16
2018-09-03T15:33:53.528Z,67.45
2018-09-03T15:38:52.307Z,69.40
2018-09-03T15:43:49.703Z,69.59
2018-09-03T15:48:47.114Z,67.40
2018-09-03T15:53:45.248Z,67.41
2018-09-03T15:58:42.690Z,68.84
2018-09-03T16:03:40.597Z,66.62
2018-09-03T16:08:38.003Z,66.84
2018-09-03T16:13:37.947Z,66.40
2018-09-03T16:18:35.482Z,66.62
2018-09-03T16:23:34.521Z,67.20
2018-09-03T16:28:32.051Z,67.62
2018-09-03T16:33:31.525Z,66.78
2018-09-03T16:38:31.814Z,69.10
2018-09-03T16:43:32.279Z,69.48
2018-09-03T16:48:31.415Z,70.73
2018-09-03T16:53:29.695Z,70.82
2018-09-03T16:58:27.081Z,70.35
2018-09-03T17:03:24.565Z,70.97
2018-09-03T17:08:22.055Z,69.92
2018-09-03T17:13:21.318Z,71.06
2018-09-03T17:18:18.791Z,70.32
2018-09-03T17:23:16.267Z,70.80
2018-09-03T17:28:13.675Z,71.05
2018-09-03T17:33:11.076Z,71.59
2018-09-03T17:38:08.672Z,72.72
2018-09-03T17:43:07.142Z,72.75
2018-09-03T17:48:05.071Z,73.64
2018-09-03T17:53:02.809Z,73.72
2018-09-03T17:58:00.298Z,73.72
2018-09-03T18:02:58.323Z,74.03
2018-09-03T18:07:55.720Z,75.20
2018-09-03T18:12:53.102Z,76.47
2018-09-03T18:17:50.519Z,76.22
2018-09-03T18:22:49.188Z,77.26
2018-09-03T18:27:46.583Z,78.04
2018-09-03T18:32:44.026Z,78.40
2018-09-03T18:37:41.451Z,78.96
2018-09-03T18:42:38.871Z,79.01
2018-09-03T18:47:36.266Z,79.14
2018-09-03T18:52:35.682Z,79.41
2018-09-03T18:57:33.248Z,80.50
2018-09-03T19:02:30.643Z,79.77
2018-09-03T19:07:28.031Z,80.37
2018-09-03T19:12:25.511Z,80.46
2018-09-03T19:17:22.966Z,81.85
2018-09-03T19:22:25.401Z,79.80
2018-09-03T19:27:22.838Z,80.48
2018-09-03T19:32:20.874Z,83.61
2018-09-03T19:37:18.347Z,83.67
2018-09-03T19:42:15.828Z,82.72
2018-09-03T19:47:13.216Z,83.59
2018-09-03T19:52:15.231Z,85.45
2018-09-03T19:57:12.613Z,85.28
2018-09-03T20:02:10.007Z,84.06
2018-09-03T20:07:07.382Z,84.07
2018-09-03T20:12:04.925Z,84.38
2018-09-03T20:17:02.388Z,84.31
2018-09-03T20:22:12.818Z,83.58
2018-09-03T20:27:10.358Z,83.48
2018-09-03T20:32:07.735Z,84.06
2018-09-03T20:37:05.535Z,85.99
2018-09-03T20:42:03.784Z,86.14
2018-09-03T20:47:01.196Z,86.72
2018-09-03T20:52:00.750Z,85.32
2018-09-03T20:56:58.154Z,85.16
2018-09-03T21:01:55.604Z,84.42
2018-09-03T21:06:53.071Z,83.72
2018-09-03T21:11:50.510Z,84.05
2018-09-03T21:16:48.020Z,85.64
2018-09-03T21:21:52.638Z,86.64
2018-09-03T21:26:50.055Z,86.66
2018-09-03T21:31:47.506Z,86.46
2018-09-03T21:36:44.896Z,87.01
2018-09-03T21:41:43.071Z,87.83
2018-09-03T21:46:41.849Z,87.68
2018-09-03T21:51:41.286Z,87.94
2018-09-03T21:56:39.685Z,86.26
2018-09-03T22:01:37.075Z,85.34
2018-09-03T22:06:34.605Z,86.66
2018-09-03T22:11:32.000Z,88.09
2018-09-03T22:16:29.412Z,86.19
2018-09-03T22:21:26.851Z,86.50
2018-09-03T22:26:24.319Z,88.41
2018-09-03T22:31:21.734Z,87.09
2018-09-03T22:36:19.124Z,87.94
2018-09-03T22:41:16.510Z,87.32
2018-09-03T22:46:14.685Z,88.17
2018-09-03T22:51:12.098Z,87.85
2018-09-03T22:56:09.495Z,87.04
2018-09-03T23:01:06.894Z,86.86
2018-09-03T23:06:05.034Z,87.31
2018-09-03T23:11:02.469Z,88.14
2018-09-03T23:15:59.883Z,87.39
2018-09-03T23:20:57.273Z,87.98
2018-09-03T23:25:54.648Z,88.07
2018-09-03T23:30:52.143Z,88.31
2018-09-03T23:35:49.566Z,89.36
2018-09-03T23:40:47.895Z,89.84
2018-09-03T23:45:45.286Z,90.52
2018-09-03T23:50:43.367Z,89.14
2018-09-03T23:55:40.812Z,88.64
